Time;durP1;ratioP1;P1;durP2;ratioP2;P2;SDS_P1;SDS_P2;PMS_P1;PMS_P2;Temp;Humidity;BMP_temperature;BMP_pressure;BME280_temperature;BME280_humidity;BME280_pressure;Samples;Min_cycle;Max_cycle;Signal;HPM_P1;HPM_P2
2021/01/24 00:01:32;;;;;;;1.53;0.90;;;4.70;88.30;;;;;;4904170;29;20402;-74
2021/01/24 00:03:58;;;;;;;2.20;0.90;;;4.70;88.50;;;;;;4893073;29;20051;-73
2021/01/24 00:06:23;;;;;;;1.50;1.03;;;4.70;88.80;;;;;;4883579;29;20044;-74
2021/01/24 00:08:49;;;;;;;1.50;0.90;;;4.60;88.80;;;;;;4885262;29;20024;-73
2021/01/24 00:11:15;;;;;;;2.37;0.90;;;4.60;89.00;;;;;;4893331;29;20029;-73
2021/01/24 00:13:40;;;;;;;1.00;0.70;;;4.60;89.10;;;;;;4890249;29;20059;-73
2021/01/24 00:16:06;;;;;;;1.73;0.83;;;4.60;89.10;;;;;;4899983;29;20064;-73
2021/01/24 00:18:31;;;;;;;1.43;1.00;;;4.60;89.10;;;;;;4908493;29;20032;-75
2021/01/24 00:20:57;;;;;;;1.83;1.00;;;4.60;88.80;;;;;;4885644;29;20060;-73
2021/01/24 00:23:23;;;;;;;1.93;0.80;;;4.60;88.80;;;;;;4909149;29;20402;-73
2021/01/24 00:25:49;;;;;;;1.23;0.93;;;4.60;89.00;;;;;;4908038;29;20041;-73
2021/01/24 00:28:20;;;;;;;1.20;0.70;;;4.60;89.30;;;;;;4899807;29;20462;-72
2021/01/24 00:30:45;;;;;;;1.20;0.80;;;4.60;89.40;;;;;;4916471;29;20028;-73
2021/01/24 00:33:11;;;;;;;1.50;0.90;;;4.60;89.60;;;;;;4899070;29;20744;-72
2021/01/24 00:35:37;;;;;;;1.77;0.90;;;4.50;90.00;;;;;;4914645;29;20164;-73
2021/01/24 00:38:03;;;;;;;1.23;0.90;;;4.50;89.80;;;;;;4899555;29;20035;-73
2021/01/24 00:40:29;;;;;;;1.83;0.80;;;4.50;89.80;;;;;;4891309;29;20029;-75
2021/01/24 00:42:55;;;;;;;1.33;0.93;;;4.50;89.80;;;;;;4861705;29;20076;-72
2021/01/24 00:45:23;;;;;;;0.90;0.60;;;4.50;89.60;;;;;;4875343;29;20047;-72
2021/01/24 00:47:48;;;;;;;1.43;0.90;;;4.50;89.80;;;;;;4865420;29;20032;-73
2021/01/24 00:50:14;;;;;;;1.63;0.90;;;4.50;90.00;;;;;;4869140;29;20145;-73
2021/01/24 00:52:40;;;;;;;1.57;0.90;;;4.50;89.80;;;;;;4897008;29;20032;-72
2021/01/24 00:55:06;;;;;;;1.60;0.80;;;4.40;89.90;;;;;;4915465;29;20394;-72
2021/01/24 00:57:31;;;;;;;1.60;0.90;;;4.40;89.70;;;;;;4906005;29;20081;-76
2021/01/24 00:59:57;;;;;;;0.97;0.80;;;4.40;89.60;;;;;;4892211;29;20028;-72
2021/01/24 01:02:22;;;;;;;2.77;0.80;;;4.30;89.60;;;;;;4916379;29;20032;-73
2021/01/24 01:04:49;;;;;;;2.37;0.90;;;4.30;89.60;;;;;;4897991;29;20095;-73
2021/01/24 01:07:14;;;;;;;1.03;0.77;;;4.30;89.00;;;;;;4899200;29;20060;-73
2021/01/24 01:09:40;;;;;;;1.27;0.90;;;4.30;88.50;;;;;;4916068;29;20393;-73
2021/01/24 01:12:06;;;;;;;2.27;0.67;;;4.30;88.20;;;;;;4899299;29;20024;-72
2021/01/24 01:14:32;;;;;;;1.40;0.70;;;4.30;87.60;;;;;;4898847;29;20596;-77
2021/01/24 01:16:57;;;;;;;1.07;0.50;;;4.30;87.60;;;;;;4899186;29;20051;-72
2021/01/24 01:19:23;;;;;;;0.90;0.80;;;4.30;87.20;;;;;;4891037;29;20039;-72
2021/01/24 01:21:49;;;;;;;1.03;0.70;;;4.30;87.70;;;;;;4890091;29;20253;-72
2021/01/24 01:24:14;;;;;;;0.70;0.67;;;4.30;86.40;;;;;;4884391;29;20123;-73
2021/01/24 01:26:40;;;;;;;1.13;0.60;;;4.30;86.80;;;;;;4881032;29;20127;-72
2021/01/24 01:29:06;;;;;;;1.00;0.60;;;4.30;86.40;;;;;;4909646;29;20038;-72
2021/01/24 01:31:31;;;;;;;1.33;0.53;;;4.30;86.20;;;;;;4905078;29;20080;-73
2021/01/24 01:33:57;;;;;;;0.73;0.53;;;4.30;86.70;;;;;;4898575;29;20096;-72
2021/01/24 01:36:23;;;;;;;0.40;0.40;;;4.20;87.40;;;;;;4898791;29;20055;-72
2021/01/24 01:38:49;;;;;;;0.63;0.40;;;4.20;86.20;;;;;;4897802;29;20059;-72
2021/01/24 01:41:14;;;;;;;0.43;0.43;;;4.20;86.20;;;;;;4915326;29;20075;-72
2021/01/24 01:43:40;;;;;;;2.40;0.40;;;4.20;86.40;;;;;;4915475;29;20024;-72
2021/01/24 01:46:05;;;;;;;2.00;0.30;;;4.10;86.60;;;;;;4885385;29;20032;-73
2021/01/24 01:48:32;;;;;;;0.50;0.30;;;4.10;86.40;;;;;;4880703;29;20029;-76
2021/01/24 01:50:59;;;;;;;0.40;0.37;;;4.10;86.00;;;;;;4915571;29;20111;-72
2021/01/24 01:53:25;;;;;;;0.70;0.37;;;4.00;85.50;;;;;;4898757;29;20064;-73
2021/01/24 01:55:51;;;;;;;0.20;0.20;;;4.00;85.60;;;;;;4897568;29;20127;-73
2021/01/24 01:58:16;;;;;;;0.30;0.20;;;4.00;84.20;;;;;;4914879;29;20115;-72
2021/01/24 02:00:42;;;;;;;0.30;0.20;;;4.00;83.80;;;;;;4882021;29;20035;-73
2021/01/24 02:03:37;;;;;;;0.40;0.23;;;4.00;85.00;;;;;;4898326;29;20057;-72
2021/01/24 02:06:14;;;;;;;0.87;0.20;;;3.90;85.40;;;;;;4905916;29;20039;-73
2021/01/24 02:08:57;;;;;;;0.30;0.10;;;3.80;85.70;;;;;;4896332;29;20426;-71
2021/01/24 02:11:28;;;;;;;;;;;3.70;85.70;;;;;;4879595;29;20474;-73
2021/01/24 02:14:05;;;;;;;0.30;0.30;;;3.70;85.20;;;;;;4914369;29;19914;-72
2021/01/24 02:16:35;;;;;;;0.40;0.20;;;3.60;85.00;;;;;;4882982;29;20068;-74
2021/01/24 02:19:03;;;;;;;0.77;0.53;;;3.60;84.90;;;;;;4872405;29;20029;-71
2021/01/24 02:21:36;;;;;;;0.70;0.40;;;3.60;84.60;;;;;;4864242;29;20033;-75
2021/01/24 02:24:08;;;;;;;0.50;0.40;;;3.60;84.80;;;;;;4881547;29;20051;-74
2021/01/24 02:27:03;;;;;;;0.70;0.50;;;3.60;84.90;;;;;;4890048;29;20478;-73
2021/01/24 02:29:50;;;;;;;1.83;0.97;;;3.60;84.50;;;;;;4909546;29;20039;-76
2021/01/24 02:32:19;;;;;;;1.77;0.90;;;3.60;84.50;;;;;;4883306;29;20029;-74
2021/01/24 02:34:46;;;;;;;1.63;0.97;;;3.50;84.30;;;;;;4885320;29;20141;-73
2021/01/24 02:37:13;;;;;;;1.40;1.10;;;3.50;83.80;;;;;;4918863;29;20063;-74
2021/01/24 02:39:42;;;;;;;1.80;1.33;;;3.50;83.90;;;;;;4907154;29;20036;-73
2021/01/24 02:42:08;;;;;;;2.90;1.50;;;3.50;83.60;;;;;;4883049;29;20123;-73
2021/01/24 02:44:36;;;;;;;1.37;1.27;;;3.40;83.60;;;;;;4899186;29;20035;-75
2021/01/24 02:47:02;;;;;;;1.93;1.20;;;3.50;83.90;;;;;;4899717;29;20032;-73
2021/01/24 02:49:29;;;;;;;2.20;1.30;;;3.50;83.60;;;;;;4899493;29;20029;-73
2021/01/24 02:51:56;;;;;;;2.37;1.50;;;3.50;83.70;;;;;;4882161;29;20037;-74
2021/01/24 02:54:23;;;;;;;1.80;1.30;;;3.50;82.50;;;;;;4882528;29;20386;-73
2021/01/24 02:56:48;;;;;;;2.87;1.73;;;3.60;82.60;;;;;;4899122;29;20060;-74
2021/01/24 02:59:15;;;;;;;2.60;1.80;;;3.50;82.00;;;;;;4884550;29;20060;-74
2021/01/24 03:01:41;;;;;;;3.83;1.60;;;3.60;81.70;;;;;;4896129;29;20063;-74
2021/01/24 03:04:06;;;;;;;3.37;2.00;;;3.50;81.90;;;;;;4918501;29;20500;-74
2021/01/24 03:06:32;;;;;;;5.13;2.43;;;3.50;81.10;;;;;;4900910;29;20088;-75
2021/01/24 03:08:59;;;;;;;5.30;2.77;;;3.60;80.40;;;;;;4901098;29;20060;-73
2021/01/24 03:11:27;;;;;;;6.33;3.17;;;3.60;80.00;;;;;;4918233;29;20048;-73
2021/01/24 03:14:04;;;;;;;5.00;2.90;;;3.60;79.00;;;;;;4900506;29;20059;-74
2021/01/24 03:16:31;;;;;;;5.47;2.83;;;3.60;79.20;;;;;;4918157;29;20079;-74
2021/01/24 03:18:59;;;;;;;4.80;3.37;;;3.50;77.60;;;;;;4900898;29;20059;-74
2021/01/24 03:21:25;;;;;;;5.63;3.27;;;3.50;77.50;;;;;;4918286;29;20047;-74
2021/01/24 03:23:52;;;;;;;6.60;3.10;;;3.50;76.60;;;;;;4897132;29;20053;-73
2021/01/24 03:26:18;;;;;;;6.33;3.10;;;3.50;76.00;;;;;;4897978;29;20045;-74
2021/01/24 03:28:44;;;;;;;5.17;2.80;;;3.50;75.90;;;;;;4896597;29;20036;-75
2021/01/24 03:31:10;;;;;;;5.97;2.80;;;3.50;74.70;;;;;;4897930;29;20029;-75
2021/01/24 03:33:37;;;;;;;7.27;2.87;;;3.50;75.50;;;;;;4896769;29;20036;-75
2021/01/24 03:36:04;;;;;;;6.67;2.50;;;3.50;75.00;;;;;;4897611;29;20080;-75
2021/01/24 03:38:30;;;;;;;6.63;2.63;;;3.50;75.20;;;;;;4897668;29;20055;-75
2021/01/24 03:40:55;;;;;;;5.27;2.50;;;3.50;73.90;;;;;;4898688;29;20405;-75
2021/01/24 03:43:22;;;;;;;6.53;2.20;;;3.40;73.80;;;;;;4898483;29;20028;-75
2021/01/24 03:45:47;;;;;;;4.60;2.40;;;3.40;73.20;;;;;;4897067;29;20154;-75
2021/01/24 03:48:13;;;;;;;5.20;2.67;;;3.40;73.80;;;;;;4897303;29;20055;-75
2021/01/24 03:50:39;;;;;;;4.20;2.40;;;3.30;73.20;;;;;;4898101;29;20462;-73
2021/01/24 03:53:05;;;;;;;4.97;2.40;;;3.40;72.80;;;;;;4897478;29;20036;-73
2021/01/24 03:55:30;;;;;;;5.40;2.43;;;3.30;72.00;;;;;;4896698;29;20466;-73
2021/01/24 03:57:56;;;;;;;5.10;2.07;;;3.30;72.10;;;;;;4896471;29;20056;-73
2021/01/24 04:00:22;;;;;;;2.67;1.83;;;3.30;71.40;;;;;;4898121;29;20466;-73
2021/01/24 04:02:47;;;;;;;5.13;2.10;;;3.30;72.10;;;;;;4897784;29;20025;-73
2021/01/24 04:05:13;;;;;;;4.87;2.00;;;3.30;72.30;;;;;;4897001;29;20041;-73
2021/01/24 04:07:39;;;;;;;4.37;2.00;;;3.30;71.70;;;;;;4896705;29;20029;-73
2021/01/24 04:10:06;;;;;;;4.57;2.10;;;3.30;71.70;;;;;;4896801;29;20043;-72
2021/01/24 04:12:32;;;;;;;4.33;2.03;;;3.30;72.50;;;;;;4897022;29;20072;-72
2021/01/24 04:14:57;;;;;;;4.60;1.60;;;3.30;72.40;;;;;;4896412;29;20548;-72
2021/01/24 04:17:23;;;;;;;7.23;1.93;;;3.30;72.40;;;;;;4896351;29;20024;-72
2021/01/24 04:19:49;;;;;;;4.13;1.90;;;3.20;72.30;;;;;;4897373;29;20043;-72
2021/01/24 04:22:14;;;;;;;3.00;1.87;;;3.20;72.60;;;;;;4896546;29;20063;-73
2021/01/24 04:24:40;;;;;;;4.20;1.87;;;3.20;72.60;;;;;;4897724;29;20033;-73
2021/01/24 04:27:06;;;;;;;5.07;1.80;;;3.10;72.70;;;;;;4897916;29;20435;-74
2021/01/24 04:29:31;;;;;;;4.83;2.00;;;3.10;72.90;;;;;;4897468;29;20028;-73
2021/01/24 04:31:57;;;;;;;4.90;2.30;;;3.10;73.20;;;;;;4897573;29;20470;-73
2021/01/24 04:34:22;;;;;;;4.97;2.00;;;3.10;73.30;;;;;;4896672;29;20072;-74
2021/01/24 04:36:48;;;;;;;2.70;1.67;;;3.10;73.00;;;;;;4896234;29;20439;-74
2021/01/24 04:39:14;;;;;;;3.33;1.80;;;3.10;72.90;;;;;;4896616;29;20036;-74
2021/01/24 04:41:40;;;;;;;3.40;1.60;;;3.10;72.70;;;;;;4895888;29;20029;-75
2021/01/24 04:44:06;;;;;;;4.77;2.10;;;3.10;72.60;;;;;;4897899;29;20115;-72
2021/01/24 04:46:36;;;;;;;7.10;2.23;;;3.00;73.00;;;;;;4896507;29;20037;-73
2021/01/24 04:49:03;;;;;;;5.00;2.30;;;3.10;72.80;;;;;;4897271;29;20029;-73
2021/01/24 04:51:29;;;;;;;2.90;1.90;;;3.10;72.30;;;;;;4897771;29;20056;-73
2021/01/24 04:53:55;;;;;;;5.90;2.50;;;3.10;72.40;;;;;;4889963;29;20036;-73
2021/01/24 04:56:21;;;;;;;7.60;2.03;;;3.10;72.50;;;;;;4878737;29;20538;-73
2021/01/24 04:58:48;;;;;;;4.63;2.07;;;3.00;72.30;;;;;;4876998;29;20116;-74
2021/01/24 05:01:19;;;;;;;4.67;1.93;;;3.00;72.40;;;;;;4877404;29;20029;-74
2021/01/24 05:03:44;;;;;;;2.90;2.10;;;3.00;72.60;;;;;;4876963;29;20036;-74
2021/01/24 05:06:10;;;;;;;2.97;2.10;;;3.00;72.60;;;;;;4878314;29;20041;-73
2021/01/24 05:08:36;;;;;;;3.83;1.80;;;3.00;71.00;;;;;;4877648;29;20490;-73
2021/01/24 05:11:07;;;;;;;5.70;2.00;;;2.90;71.70;;;;;;4878348;29;20037;-73
2021/01/24 05:13:33;;;;;;;3.20;1.80;;;2.90;69.10;;;;;;4878873;29;20064;-73
2021/01/24 05:16:00;;;;;;;3.50;1.60;;;2.90;68.90;;;;;;4877113;29;20510;-73
2021/01/24 05:18:26;;;;;;;8.53;2.20;;;2.80;68.80;;;;;;4877580;29;20037;-73
2021/01/24 05:20:53;;;;;;;3.13;1.80;;;2.80;69.20;;;;;;4876697;29;20443;-73
2021/01/24 05:23:23;;;;;;;3.20;1.90;;;2.80;68.80;;;;;;4877073;29;20081;-73
2021/01/24 05:25:52;;;;;;;3.60;1.63;;;2.80;68.20;;;;;;4877051;29;20120;-73
2021/01/24 05:28:21;;;;;;;3.33;1.90;;;2.80;68.90;;;;;;4877452;29;20036;-73
2021/01/24 05:30:47;;;;;;;4.57;1.93;;;2.80;68.90;;;;;;4878253;29;20032;-72
2021/01/24 05:33:16;;;;;;;4.70;2.03;;;2.80;68.80;;;;;;4877472;29;20060;-73
2021/01/24 05:35:51;;;;;;;4.47;1.97;;;2.80;68.50;;;;;;4877113;29;20471;-74
2021/01/24 05:38:30;;;;;;;5.90;2.60;;;2.80;69.00;;;;;;4878634;29;20493;-73
2021/01/24 05:41:00;;;;;;;4.10;2.20;;;2.80;68.90;;;;;;4876457;29;20387;-73
2021/01/24 05:43:27;;;;;;;6.27;2.37;;;2.80;69.70;;;;;;4877076;29;20479;-73
2021/01/24 05:45:53;;;;;;;3.03;1.87;;;2.90;69.60;;;;;;4877372;29;20037;-73
2021/01/24 05:48:19;;;;;;;5.70;2.30;;;2.90;68.50;;;;;;4876952;29;20029;-73
2021/01/24 05:50:45;;;;;;;3.20;2.27;;;2.90;69.00;;;;;;4877623;29;20085;-73
2021/01/24 05:53:14;;;;;;;3.37;2.17;;;2.90;69.50;;;;;;4882036;29;20055;-73
2021/01/24 05:55:42;;;;;;;4.37;2.20;;;2.80;69.50;;;;;;4880477;29;20036;-74
2021/01/24 05:58:22;;;;;;;5.77;2.67;;;2.80;70.40;;;;;;4881825;29;20040;-73
2021/01/24 06:00:52;;;;;;;5.13;2.40;;;2.80;70.40;;;;;;4880456;29;20088;-73
2021/01/24 06:03:19;;;;;;;6.37;2.73;;;2.80;70.90;;;;;;4882055;29;20032;-73
2021/01/24 06:05:46;;;;;;;4.30;2.37;;;2.80;71.40;;;;;;4880132;29;20041;-74
2021/01/24 06:08:16;;;;;;;7.53;2.70;;;2.70;72.00;;;;;;4880559;29;20032;-73
2021/01/24 06:10:43;;;;;;;5.50;2.50;;;2.70;72.30;;;;;;4880581;29;20077;-74
2021/01/24 06:13:28;;;;;;;5.60;2.40;;;2.70;72.00;;;;;;4881552;29;20036;-73
2021/01/24 06:15:58;;;;;;;4.13;2.20;;;2.70;72.10;;;;;;4880106;29;20029;-74
2021/01/24 06:18:32;;;;;;;4.23;2.20;;;2.70;71.80;;;;;;4880567;29;20025;-72
2021/01/24 06:21:02;;;;;;;5.00;2.10;;;2.70;71.50;;;;;;4880010;29;20052;-73
2021/01/24 06:23:34;;;;;;;4.70;2.50;;;2.70;71.10;;;;;;4880193;29;20052;-73
2021/01/24 06:26:10;;;;;;;;;;;2.70;71.40;;;;;;4880279;29;20041;-74
2021/01/24 06:28:41;;;;;;;4.50;2.53;;;2.70;70.70;;;;;;4881006;29;19954;-73
2021/01/24 06:31:18;;;;;;;4.00;2.20;;;2.70;70.90;;;;;;4879537;29;20037;-74
2021/01/24 06:33:44;;;;;;;5.40;2.20;;;2.70;71.00;;;;;;4879748;29;20025;-74
2021/01/24 06:36:12;;;;;;;4.47;1.93;;;2.70;70.40;;;;;;4880061;29;20097;-74
2021/01/24 06:38:42;;;;;;;6.47;1.90;;;2.70;70.20;;;;;;4880283;29;20029;-73
2021/01/24 06:41:13;;;;;;;5.07;2.20;;;2.70;70.70;;;;;;4879793;29;20479;-74
2021/01/24 06:43:47;;;;;;;4.20;2.10;;;2.70;71.80;;;;;;4880177;29;20089;-74
2021/01/24 06:46:28;;;;;;;4.70;2.13;;;2.70;71.80;;;;;;4880340;29;20128;-73
2021/01/24 06:48:54;;;;;;;3.20;2.17;;;2.70;71.40;;;;;;4879427;29;20033;-73
2021/01/24 06:51:37;;;;;;;4.97;2.10;;;2.70;70.90;;;;;;4880021;29;20120;-72
2021/01/24 06:54:07;;;;;;;3.83;2.03;;;2.70;70.50;;;;;;4879140;29;20527;-73
2021/01/24 06:56:51;;;;;;;4.30;2.03;;;2.70;70.50;;;;;;4880854;29;20029;-72
2021/01/24 06:59:28;;;;;;;5.13;2.10;;;2.70;70.40;;;;;;4880926;29;20539;-74
2021/01/24 07:02:20;;;;;;;3.83;1.90;;;2.70;70.40;;;;;;4878893;29;20144;-73
2021/01/24 07:05:04;;;;;;;;;;;2.70;69.90;;;;;;4880377;29;20112;-77
2021/01/24 07:07:32;;;;;;;3.53;1.77;;;2.70;69.50;;;;;;4879462;29;19963;-73
2021/01/24 07:09:58;;;;;;;4.00;1.83;;;2.70;69.70;;;;;;4879063;29;20093;-73
2021/01/24 07:12:34;;;;;;;4.87;1.90;;;2.70;70.10;;;;;;4880549;29;20372;-73
2021/01/24 07:15:01;;;;;;;5.73;1.87;;;2.60;70.00;;;;;;4880143;29;20089;-73
2021/01/24 07:17:27;;;;;;;4.07;1.80;;;2.60;70.30;;;;;;4879243;29;20120;-73
2021/01/24 07:19:54;;;;;;;3.23;1.80;;;2.60;70.70;;;;;;4879760;29;20064;-74
2021/01/24 07:22:22;;;;;;;3.03;1.97;;;2.70;70.30;;;;;;4887061;29;20127;-73
2021/01/24 07:24:49;;;;;;;3.67;1.90;;;2.70;70.50;;;;;;4881951;29;20140;-75
2021/01/24 07:27:16;;;;;;;4.43;2.07;;;2.70;70.10;;;;;;4899416;29;20032;-73
2021/01/24 07:29:43;;;;;;;4.07;1.93;;;2.70;71.00;;;;;;4882228;29;20029;-74
2021/01/24 07:32:11;;;;;;;4.50;2.00;;;2.70;71.00;;;;;;4899088;29;20029;-74
2021/01/24 07:34:37;;;;;;;3.93;1.93;;;2.80;70.60;;;;;;4899049;29;20024;-75
2021/01/24 07:37:05;;;;;;;4.10;1.80;;;2.80;70.30;;;;;;4881898;29;20055;-75
2021/01/24 07:39:32;;;;;;;4.77;2.13;;;2.80;70.40;;;;;;4898834;29;20028;-72
2021/01/24 07:41:58;;;;;;;2.97;2.00;;;2.90;70.60;;;;;;4898429;29;20029;-74
2021/01/24 07:44:24;;;;;;;4.60;1.70;;;2.90;70.60;;;;;;4881943;29;20028;-73
2021/01/24 07:46:50;;;;;;;4.10;2.00;;;2.90;70.60;;;;;;4898193;29;20051;-77
2021/01/24 07:49:17;;;;;;;3.30;2.13;;;2.90;70.90;;;;;;4898829;29;20028;-74
2021/01/24 07:51:43;;;;;;;3.63;1.90;;;2.90;71.00;;;;;;4898748;29;20060;-75
2021/01/24 07:54:10;;;;;;;3.57;2.30;;;2.90;71.40;;;;;;4880916;29;20701;-75
2021/01/24 07:56:36;;;;;;;4.23;2.03;;;2.90;71.30;;;;;;4882057;29;20394;-74
2021/01/24 07:59:06;;;;;;;7.20;2.40;;;2.90;72.00;;;;;;4897991;29;20052;-74
2021/01/24 08:01:38;;;;;;;7.67;2.17;;;2.90;71.70;;;;;;4881194;29;20394;-73
2021/01/24 08:04:04;;;;;;;4.93;2.65;;;2.90;71.80;;;;;;4881418;29;20028;-72
2021/01/24 08:06:37;;;;;;;5.83;2.17;;;3.00;71.50;;;;;;4881605;29;20041;-72
2021/01/24 08:09:05;;;;;;;6.17;2.27;;;2.90;71.90;;;;;;4881171;29;20032;-72
2021/01/24 08:11:30;;;;;;;10.33;2.47;;;3.00;72.50;;;;;;4881498;29;20044;-72
2021/01/24 08:13:56;;;;;;;4.50;2.17;;;3.00;71.90;;;;;;4880829;29;20379;-73
2021/01/24 08:16:43;;;;;;;3.57;2.10;;;2.90;72.00;;;;;;4912726;29;20386;-72
2021/01/24 08:19:14;;;;;;;4.17;2.17;;;3.00;72.40;;;;;;4897549;29;20071;-72
2021/01/24 08:21:40;;;;;;;4.17;2.17;;;3.00;72.20;;;;;;4897694;29;20040;-73
2021/01/24 08:24:07;;;;;;;5.03;2.50;;;3.00;72.40;;;;;;4897400;29;20040;-73
2021/01/24 08:26:37;;;;;;;7.90;3.23;;;2.90;72.70;;;;;;4881051;29;20032;-73
2021/01/24 08:29:03;;;;;;;5.83;2.17;;;2.90;72.80;;;;;;4881012;29;20478;-74
2021/01/24 08:31:29;;;;;;;4.00;2.10;;;3.00;72.90;;;;;;4881585;29;20104;-73
2021/01/24 08:33:55;;;;;;;4.23;1.87;;;3.00;73.40;;;;;;4880646;29;20471;-75
2021/01/24 08:36:27;;;;;;;6.50;2.10;;;3.00;73.00;;;;;;4880966;29;20064;-73
2021/01/24 08:38:57;;;;;;;3.92;2.03;;;3.00;72.80;;;;;;4881038;29;20029;-76
2021/01/24 08:41:37;;;;;;;4.17;1.90;;;3.10;73.00;;;;;;4898167;29;20116;-73
2021/01/24 08:44:12;;;;;;;4.07;2.13;;;3.10;72.70;;;;;;4880682;29;20075;-74
2021/01/24 08:46:43;;;;;;;7.87;1.97;;;3.10;72.50;;;;;;4880980;29;20040;-74
2021/01/24 08:49:13;;;;;;;6.70;2.17;;;3.10;72.40;;;;;;4880601;29;20036;-73
2021/01/24 08:51:39;;;;;;;7.00;2.30;;;3.10;72.60;;;;;;4880962;29;20036;-73
2021/01/24 08:54:21;;;;;;;4.33;2.03;;;3.00;72.80;;;;;;4897043;29;20414;-73
2021/01/24 08:56:47;;;;;;;;;;;3.10;72.50;;;;;;4898163;29;20080;-74
2021/01/24 08:59:21;;;;;;;2.67;1.70;;;3.00;72.70;;;;;;4880135;29;19911;-75
2021/01/24 09:01:48;;;;;;;6.07;2.47;;;3.10;72.70;;;;;;4880205;29;20021;-74
2021/01/24 09:04:27;;;;;;;3.10;2.00;;;3.10;73.00;;;;;;4916844;29;20132;-74
2021/01/24 09:07:09;;;;;;;5.20;2.10;;;3.10;73.20;;;;;;4899541;29;20119;-75
2021/01/24 09:09:37;;;;;;;4.72;2.50;;;3.10;73.00;;;;;;4916278;29;20024;-76
2021/01/24 09:12:15;;;;;;;4.47;2.23;;;3.10;72.80;;;;;;4898628;29;20032;-75
2021/01/24 09:14:41;;;;;;;6.73;2.43;;;3.00;72.90;;;;;;4899050;29;20032;-75
2021/01/24 09:17:10;;;;;;;8.73;2.87;;;3.00;72.80;;;;;;4916109;29;20028;-75
2021/01/24 09:19:38;;;;;;;3.90;2.40;;;3.00;73.00;;;;;;4899163;29;20036;-75
2021/01/24 09:22:17;;;;;;;5.07;2.33;;;3.10;73.10;;;;;;4899659;29;20124;-74
2021/01/24 09:24:44;;;;;;;6.03;2.93;;;3.10;72.80;;;;;;4893644;29;20487;-74
2021/01/24 09:27:12;;;;;;;5.00;2.07;;;3.10;72.30;;;;;;4889103;29;20024;-73
2021/01/24 09:29:39;;;;;;;9.77;2.57;;;3.10;72.60;;;;;;4874707;29;20124;-75
2021/01/24 09:32:06;;;;;;;3.97;2.13;;;3.10;72.20;;;;;;4892036;29;20549;-75
2021/01/24 09:34:32;;;;;;;9.70;2.97;;;3.10;72.20;;;;;;4870455;29;20034;-74
2021/01/24 09:36:58;;;;;;;4.07;2.07;;;3.10;72.10;;;;;;4882652;29;20119;-75
2021/01/24 09:39:24;;;;;;;2.70;1.70;;;3.20;71.60;;;;;;4900918;29;20445;-74
2021/01/24 09:41:49;;;;;;;6.13;1.83;;;3.20;71.10;;;;;;4893177;29;20024;-75
2021/01/24 09:44:15;;;;;;;5.00;2.33;;;3.20;71.20;;;;;;4916244;29;20032;-76
2021/01/24 09:46:41;;;;;;;7.30;2.33;;;3.20;71.00;;;;;;4905096;29;20040;-73
2021/01/24 09:49:07;;;;;;;5.53;1.90;;;3.30;70.70;;;;;;4881205;29;20054;-73
2021/01/24 09:51:33;;;;;;;4.00;2.27;;;3.30;70.20;;;;;;4886104;29;20037;-74
2021/01/24 09:53:59;;;;;;;5.93;2.00;;;3.30;70.20;;;;;;4882098;29;20028;-75
2021/01/24 09:56:26;;;;;;;4.10;2.10;;;3.30;70.40;;;;;;4874374;29;20035;-74
2021/01/24 09:58:56;;;;;;;9.73;1.90;;;3.30;70.30;;;;;;4887488;29;20033;-74
2021/01/24 10:01:22;;;;;;;3.77;2.00;;;3.30;70.00;;;;;;4891291;29;20063;-74
2021/01/24 10:03:49;;;;;;;5.77;2.40;;;3.30;70.60;;;;;;4891971;29;20473;-73
2021/01/24 10:06:16;;;;;;;3.93;1.73;;;3.40;70.80;;;;;;4881240;29;20041;-75
2021/01/24 10:08:41;;;;;;;4.23;1.97;;;3.40;69.20;;;;;;4896148;29;20036;-74
2021/01/24 10:11:07;;;;;;;4.47;2.10;;;3.40;69.50;;;;;;4906288;29;20095;-74
2021/01/24 10:13:33;;;;;;;4.63;2.00;;;3.40;69.50;;;;;;4890228;29;20028;-73
2021/01/24 10:15:59;;;;;;;5.83;1.80;;;3.50;69.00;;;;;;4883331;29;20511;-74
2021/01/24 10:18:25;;;;;;;6.23;2.00;;;3.50;68.10;;;;;;4870755;29;20558;-76
2021/01/24 10:20:51;;;;;;;4.20;1.73;;;3.50;68.50;;;;;;4897002;29;20033;-75
2021/01/24 10:23:23;;;;;;;2.80;1.60;;;3.50;68.40;;;;;;4882755;29;20395;-74
2021/01/24 10:25:56;;;;;;;4.73;1.80;;;3.50;69.10;;;;;;4883107;29;20459;-73
2021/01/24 10:28:23;;;;;;;4.70;1.83;;;3.60;68.10;;;;;;4899339;29;20036;-74
2021/01/24 10:30:49;;;;;;;4.63;2.03;;;3.60;68.40;;;;;;4882774;29;20123;-75
2021/01/24 10:33:15;;;;;;;3.70;1.97;;;3.60;67.90;;;;;;4898883;29;20028;-74
2021/01/24 10:35:42;;;;;;;3.97;1.80;;;3.60;67.10;;;;;;4899054;29;20047;-74
2021/01/24 10:38:08;;;;;;;3.27;1.60;;;3.60;66.90;;;;;;4898682;29;20032;-74
2021/01/24 10:40:35;;;;;;;4.07;1.47;;;3.60;67.00;;;;;;4882736;29;20035;-74
2021/01/24 10:43:02;;;;;;;4.30;1.90;;;3.50;67.10;;;;;;4899080;29;20146;-73
2021/01/24 10:45:28;;;;;;;3.10;1.47;;;3.50;66.50;;;;;;4899566;29;20108;-73
2021/01/24 10:47:53;;;;;;;5.17;1.50;;;3.50;66.10;;;;;;4905869;29;20032;-72
2021/01/24 10:50:19;;;;;;;4.77;1.43;;;3.50;65.90;;;;;;4900744;29;20439;-74
2021/01/24 10:52:45;;;;;;;2.37;1.57;;;3.50;65.30;;;;;;4918021;29;20028;-74
2021/01/24 10:55:12;;;;;;;1.77;1.33;;;3.60;66.00;;;;;;4900581;29;20063;-75
2021/01/24 10:57:38;;;;;;;3.77;1.83;;;3.60;66.20;;;;;;4902083;29;20075;-74
2021/01/24 11:00:08;;;;;;;2.13;1.30;;;3.60;65.30;;;;;;4881500;29;20119;-72
2021/01/24 11:02:34;;;;;;;2.63;1.20;;;3.60;64.60;;;;;;4898985;29;20031;-74
2021/01/24 11:04:59;;;;;;;2.20;1.50;;;3.60;64.50;;;;;;4881823;29;20036;-73
2021/01/24 11:07:26;;;;;;;3.37;1.73;;;3.60;64.30;;;;;;4897983;29;20455;-74
2021/01/24 11:09:53;;;;;;;4.10;1.63;;;3.60;64.40;;;;;;4899060;29;20085;-74
2021/01/24 11:12:18;;;;;;;2.60;1.47;;;3.60;64.20;;;;;;4881576;29;20115;-73
2021/01/24 11:14:44;;;;;;;3.97;1.33;;;3.60;64.10;;;;;;4898438;29;20443;-73
2021/01/24 11:17:10;;;;;;;2.53;1.47;;;3.60;64.20;;;;;;4897855;29;20028;-75
2021/01/24 11:19:39;;;;;;;3.00;1.43;;;3.70;64.20;;;;;;4881287;29;20134;-74
2021/01/24 11:22:05;;;;;;;3.87;1.50;;;3.60;64.20;;;;;;4897612;29;20059;-73
2021/01/24 11:24:31;;;;;;;4.50;1.50;;;3.60;64.50;;;;;;4898339;29;20382;-74
2021/01/24 11:26:57;;;;;;;2.77;1.80;;;3.60;64.90;;;;;;4880880;29;20394;-77
2021/01/24 11:29:24;;;;;;;3.60;1.50;;;3.60;65.00;;;;;;4879758;29;20029;-74
2021/01/24 11:31:52;;;;;;;2.90;1.53;;;3.60;65.30;;;;;;4885683;29;20084;-74
2021/01/24 11:34:18;;;;;;;1.83;1.40;;;3.60;66.00;;;;;;4912096;29;20375;-75
2021/01/24 11:36:45;;;;;;;2.77;1.50;;;3.60;65.60;;;;;;4916324;29;20087;-75
2021/01/24 11:39:11;;;;;;;3.47;1.60;;;3.60;65.50;;;;;;4909876;29;20489;-73
2021/01/24 11:41:36;;;;;;;2.03;1.57;;;3.60;66.10;;;;;;4907276;29;20112;-74
2021/01/24 11:44:02;;;;;;;3.43;1.60;;;3.60;65.20;;;;;;4884107;29;20033;-74
2021/01/24 11:46:28;;;;;;;3.10;1.13;;;3.60;65.50;;;;;;4896417;29;20040;-74
2021/01/24 11:48:53;;;;;;;2.30;1.50;;;3.60;66.00;;;;;;4901113;29;20060;-74
2021/01/24 11:51:19;;;;;;;2.50;1.50;;;3.70;65.60;;;;;;4909342;29;20453;-74
2021/01/24 11:53:45;;;;;;;4.20;1.70;;;3.80;65.50;;;;;;4894535;29;20054;-75
2021/01/24 11:56:10;;;;;;;2.70;1.43;;;3.90;64.70;;;;;;4899027;29;20492;-74
2021/01/24 11:58:36;;;;;;;2.93;1.37;;;4.00;64.40;;;;;;4884013;29;20048;-74
2021/01/24 12:01:02;;;;;;;3.50;1.40;;;4.00;64.80;;;;;;4902703;29;20032;-77
2021/01/24 12:03:27;;;;;;;2.67;1.80;;;4.00;65.10;;;;;;4873257;29;20467;-74
2021/01/24 12:05:53;;;;;;;3.40;1.70;;;4.00;64.90;;;;;;4884517;29;20032;-76
2021/01/24 12:08:19;;;;;;;2.10;1.50;;;4.00;65.40;;;;;;4895346;29;20037;-73
2021/01/24 12:10:45;;;;;;;3.03;1.67;;;3.90;65.40;;;;;;4874760;29;20066;-72
2021/01/24 12:13:11;;;;;;;3.03;1.40;;;3.80;65.00;;;;;;4874871;29;20024;-73
2021/01/24 12:15:36;;;;;;;1.90;1.23;;;3.80;64.70;;;;;;4886066;29;20037;-73
2021/01/24 12:18:02;;;;;;;2.13;1.13;;;3.80;64.00;;;;;;4902783;29;20502;-73
2021/01/24 12:20:28;;;;;;;3.90;1.50;;;3.80;63.90;;;;;;4883238;29;20033;-72
2021/01/24 12:22:53;;;;;;;2.80;1.47;;;3.80;64.20;;;;;;4886810;29;20398;-71
2021/01/24 12:25:19;;;;;;;3.83;1.50;;;3.80;63.50;;;;;;4891744;29;20124;-72
2021/01/24 12:27:45;;;;;;;1.53;1.00;;;3.80;62.80;;;;;;4890389;29;20111;-72
2021/01/24 12:30:11;;;;;;;2.43;1.10;;;3.90;62.40;;;;;;4883243;29;20164;-73
2021/01/24 12:32:36;;;;;;;4.03;1.40;;;4.00;62.00;;;;;;4885212;29;20047;-73
2021/01/24 12:35:03;;;;;;;2.07;1.10;;;4.00;61.50;;;;;;4893817;29;20029;-73
2021/01/24 12:37:28;;;;;;;3.37;1.20;;;4.00;60.90;;;;;;4900686;29;20036;-75
2021/01/24 12:39:54;;;;;;;4.80;1.10;;;4.00;60.50;;;;;;4877474;29;20111;-72
2021/01/24 12:42:20;;;;;;;1.77;0.90;;;4.00;59.90;;;;;;4885319;29;20534;-72
2021/01/24 12:44:45;;;;;;;2.50;1.10;;;4.00;60.20;;;;;;4895350;29;20478;-72
2021/01/24 12:47:11;;;;;;;3.47;1.37;;;4.00;60.30;;;;;;4885506;29;20043;-73
2021/01/24 12:49:38;;;;;;;1.77;1.10;;;3.90;61.10;;;;;;4906172;29;20464;-72
2021/01/24 12:52:04;;;;;;;1.80;1.17;;;4.00;61.20;;;;;;4908771;29;20024;-75
2021/01/24 12:54:30;;;;;;;1.67;1.20;;;4.00;60.90;;;;;;4894687;29;20085;-73
2021/01/24 12:56:56;;;;;;;1.47;1.00;;;4.00;61.70;;;;;;4883929;29;20417;-72
2021/01/24 12:59:21;;;;;;;3.07;1.50;;;4.00;61.90;;;;;;4881699;29;20036;-72
2021/01/24 13:01:47;;;;;;;2.87;1.30;;;4.00;62.70;;;;;;4882803;29;20040;-72